Time;durP1;ratioP1;P1;durP2;ratioP2;P2;SDS_P1;SDS_P2;PMS_P1;PMS_P2;Temp;Humidity;BMP_temperature;BMP_pressure;BME280_temperature;BME280_humidity;BME280_pressure;Samples;Min_cycle;Max_cycle;Signal;HPM_P1;HPM_P2
2023/06/01 00:00:55;;;;;;;0.20;0.20;;;;;;;20.41;46.01;101535.06;5183589;28;20602;-85
2023/06/01 00:03:46;;;;;;;0.68;0.68;;;;;;;20.40;46.16;101534.19;5198892;28;20456;-85
2023/06/01 00:06:37;;;;;;;0.15;0.15;;;;;;;20.33;46.71;101531.97;5169216;28;20473;-87
2023/06/01 00:09:28;;;;;;;0.50;0.50;;;;;;;20.28;46.16;101537.56;5183372;28;20030;-86
2023/06/01 00:12:21;;;;;;;6.97;1.60;;;;;;;20.20;46.47;101523.78;5187198;28;20531;-87
2023/06/01 00:15:12;;;;;;;0.47;0.47;;;;;;;20.12;47.57;101517.06;5173727;28;20096;-87
2023/06/01 00:18:05;;;;;;;0.40;0.40;;;;;;;20.13;46.51;101525.94;5170591;28;20040;-86
2023/06/01 00:20:56;;;;;;;0.68;0.57;;;;;;;19.99;47.86;101528.50;5190963;28;20044;-88
2023/06/01 00:23:47;;;;;;;0.30;0.30;;;;;;;20.05;47.61;101530.81;5189394;28;20026;-86
2023/06/01 00:26:38;;;;;;;0.55;0.55;;;;;;;20.04;47.89;101529.94;5182762;28;20050;-86
2023/06/01 00:29:29;;;;;;;0.82;0.82;;;;;;;19.75;48.57;101529.69;5171146;28;20026;-86
2023/06/01 00:32:20;;;;;;;0.43;0.40;;;;;;;19.69;49.44;101530.00;5185347;28;20069;-86
2023/06/01 00:35:11;;;;;;;0.45;0.45;;;;;;;19.60;50.66;101526.00;5185048;28;20040;-87
2023/06/01 00:38:01;;;;;;;0.30;0.30;;;;;;;19.62;49.16;101533.94;5186112;28;20059;-87
2023/06/01 00:40:52;;;;;;;1.10;1.00;;;;;;;19.45;50.09;101532.13;5174472;28;20227;-87
2023/06/01 00:43:43;;;;;;;0.55;0.55;;;;;;;19.59;50.07;101524.28;5183597;28;20013;-87
2023/06/01 00:46:37;;;;;;;1.33;1.23;;;;;;;19.61;49.07;101524.22;5182834;28;20416;-86
2023/06/01 00:49:27;;;;;;;0.30;0.30;;;;;;;19.63;49.16;101524.97;5201064;28;20025;-87
2023/06/01 00:52:20;;;;;;;4.85;0.77;;;;;;;19.52;49.52;101527.38;5185886;28;20033;-86
2023/06/01 00:55:12;;;;;;;1.58;1.48;;;;;;;19.26;49.49;101524.25;5183874;28;20127;-85
2023/06/01 00:58:04;;;;;;;6.70;1.10;;;;;;;19.48;49.35;101526.66;5169481;28;20146;-86
2023/06/01 01:00:55;;;;;;;0.32;0.32;;;;;;;19.32;49.34;101532.78;5185790;28;20530;-86
2023/06/01 01:03:49;;;;;;;0.43;0.43;;;;;;;19.22;49.84;101528.88;5172183;28;20032;-87
2023/06/01 01:07:03;;;;;;;0.20;0.20;;;;;;;19.10;50.70;101535.66;5173780;28;20512;-86
2023/06/01 01:10:01;;;;;;;2.35;1.20;;;;;;;19.32;49.08;101530.13;5168949;28;20127;-87
2023/06/01 01:13:27;;;;;;;0.20;0.20;;;;;;;19.15;49.93;101536.28;5181429;28;20567;-87
2023/06/01 01:16:27;;;;;;;0.60;0.60;;;;;;;19.05;50.61;101532.34;5194537;28;20053;-87
2023/06/01 01:19:24;;;;;;;0.40;0.40;;;;;;;19.12;50.17;101535.59;5191546;28;20061;-87
2023/06/01 01:22:38;;;;;;;0.20;0.20;;;;;;;19.12;49.56;101536.47;5189656;28;20034;-87
2023/06/01 01:25:56;;;;;;;0.30;0.30;;;;;;;19.23;49.38;101532.38;5169628;28;20013;-87
2023/06/01 01:28:52;;;;;;;0.35;0.35;;;;;;;19.01;50.70;101533.47;5183364;28;20038;-87
2023/06/01 01:31:45;;;;;;;3.55;1.42;;;;;;;19.01;51.24;101544.94;5186310;28;20025;-87
2023/06/01 01:34:37;;;;;;;0.40;0.40;;;;;;;18.97;50.48;101537.19;5171552;28;20116;-86
2023/06/01 01:37:28;;;;;;;3.88;0.77;;;;;;;18.99;51.49;101541.53;5186074;28;20268;-87
2023/06/01 01:40:19;;;;;;;0.98;0.68;;;;;;;18.87;51.05;101542.97;5182594;28;20030;-85
2023/06/01 01:43:10;;;;;;;1.45;0.57;;;;;;;18.96;51.64;101539.00;5171283;28;20772;-87
2023/06/01 01:46:21;;;;;;;0.40;0.40;;;;;;;18.83;50.86;101538.72;5173084;28;20119;-85
2023/06/01 01:49:17;;;;;;;0.95;0.95;;;;;;;18.78;51.40;101537.22;5172619;28;20025;-86
2023/06/01 01:52:22;;;;;;;1.25;1.15;;;;;;;18.42;54.35;101541.56;5184555;28;20064;-86
2023/06/01 01:55:15;;;;;;;4.28;1.02;;;;;;;18.64;51.39;101535.22;5170356;28;20034;-87
2023/06/01 01:58:06;;;;;;;6.13;1.70;;;;;;;18.65;51.24;101542.25;5185959;28;20069;-87
2023/06/01 02:00:58;;;;;;;1.15;0.95;;;;;;;18.70;51.46;101541.09;5169393;28;20595;-86
2023/06/01 02:04:01;;;;;;;0.40;0.40;;;;;;;18.73;50.89;101540.09;5172869;28;20801;-86
2023/06/01 02:06:51;;;;;;;0.90;0.88;;;;;;;18.59;51.29;101538.13;5190730;28;20034;-86
2023/06/01 02:09:42;;;;;;;0.30;0.30;;;;;;;18.63;51.52;101539.69;5188301;28;20037;-86
2023/06/01 02:12:33;;;;;;;1.25;1.15;;;;;;;18.64;50.56;101537.88;5169234;28;20065;-87
2023/06/01 02:15:24;;;;;;;0.98;0.82;;;;;;;18.55;51.46;101534.72;5170348;28;20105;-86
2023/06/01 02:18:17;;;;;;;3.00;2.13;;;;;;;18.32;52.96;101532.31;5175205;28;20457;-86
2023/06/01 02:21:08;;;;;;;1.85;1.70;;;;;;;18.46;51.87;101523.69;5188309;28;20030;-87
2023/06/01 02:24:04;;;;;;;1.17;1.10;;;;;;;18.31;51.75;101527.91;5192781;28;20031;-87
2023/06/01 02:26:55;;;;;;;1.00;0.40;;;;;;;18.18;52.57;101532.97;5185393;28;20320;-85
2023/06/01 02:29:46;;;;;;;1.55;1.40;;;;;;;18.05;53.58;101530.84;5192157;28;20563;-86
2023/06/01 02:32:37;;;;;;;0.40;0.40;;;;;;;18.13;53.10;101533.19;5181595;28;20073;-86
2023/06/01 02:35:28;;;;;;;0.65;0.65;;;;;;;18.18;52.72;101532.97;5171266;28;20041;-86
2023/06/01 02:38:19;;;;;;;1.38;0.82;;;;;;;17.94;54.70;101531.31;5170595;28;20117;-86
2023/06/01 02:41:09;;;;;;;0.82;0.82;;;;;;;17.96;53.71;101533.09;5178990;28;20032;-86
2023/06/01 02:44:01;;;;;;;0.80;0.80;;;;;;;17.84;55.48;101530.00;5178057;28;20037;-87
2023/06/01 02:46:51;;;;;;;1.20;1.10;;;;;;;17.47;56.45;101534.28;5170962;28;20045;-86
2023/06/01 02:49:42;;;;;;;0.82;0.82;;;;;;;17.49;55.88;101527.09;5192256;28;20104;-86
2023/06/01 02:52:34;;;;;;;0.75;0.75;;;;;;;17.45;54.91;101534.34;5178970;28;20116;-86
2023/06/01 02:55:25;;;;;;;1.15;0.98;;;;;;;17.56;54.16;101535.66;5171533;28;20111;-86
2023/06/01 02:58:16;;;;;;;0.57;0.57;;;;;;;17.53;56.28;101539.31;5172199;28;20033;-87
2023/06/01 03:01:11;;;;;;;0.90;0.90;;;;;;;17.28;56.76;101540.38;5167965;28;20787;-87
2023/06/01 03:04:07;;;;;;;0.90;0.90;;;;;;;17.45;54.79;101530.84;5185925;28;20048;-85
2023/06/01 03:06:58;;;;;;;1.45;1.35;;;;;;;17.04;55.69;101541.41;5167860;28;20096;-86
2023/06/01 03:09:49;;;;;;;1.20;0.93;;;;;;;17.26;54.57;101544.88;5174685;28;20033;-86
2023/06/01 03:12:40;;;;;;;1.85;1.27;;;;;;;17.36;54.54;101533.88;5181163;28;20038;-86
2023/06/01 03:15:31;;;;;;;2.40;1.42;;;;;;;17.42;55.08;101542.44;5183819;28;20085;-86
2023/06/01 03:18:22;;;;;;;0.57;0.57;;;;;;;17.23;55.52;101545.00;5185948;28;20029;-86
2023/06/01 03:21:12;;;;;;;1.40;0.75;;;;;;;17.26;54.57;101542.22;5187462;28;20041;-86
2023/06/01 03:24:03;;;;;;;1.00;0.77;;;;;;;17.20;55.58;101539.84;5186133;28;20045;-86
2023/06/01 03:26:55;;;;;;;1.85;0.85;;;;;;;17.26;54.95;101544.88;5184920;28;20041;-86
2023/06/01 03:29:46;;;;;;;1.13;1.02;;;;;;;17.16;55.23;101546.19;5182596;28;20175;-87
2023/06/01 03:32:38;;;;;;;1.08;1.02;;;;;;;17.12;55.14;101547.25;5168145;28;20064;-87
2023/06/01 03:35:28;;;;;;;1.08;1.05;;;;;;;16.70;57.06;101546.22;5201998;28;20673;-85
2023/06/01 03:38:19;;;;;;;0.93;0.93;;;;;;;16.76;56.94;101546.00;5183125;28;20076;-86
2023/06/01 03:41:10;;;;;;;1.05;1.05;;;;;;;16.50;57.75;101554.97;5183746;28;20044;-86
2023/06/01 03:44:01;;;;;;;1.10;0.82;;;;;;;16.56;56.52;101556.50;5169627;28;20029;-86
2023/06/01 03:46:52;;;;;;;1.33;1.25;;;;;;;16.60;57.48;101559.00;5177048;28;20048;-86
2023/06/01 03:49:43;;;;;;;1.35;1.17;;;;;;;16.59;56.21;101554.59;5170615;28;20030;-87
2023/06/01 03:52:34;;;;;;;0.60;0.60;;;;;;;16.55;57.12;101558.31;5171573;28;20033;-87
2023/06/01 03:55:26;;;;;;;1.55;1.45;;;;;;;16.66;55.94;101556.09;5172376;28;20176;-86
2023/06/01 03:58:19;;;;;;;1.13;1.02;;;;;;;16.44;57.94;101557.84;5173039;28;20479;-86
2023/06/01 04:01:11;;;;;;;2.50;1.27;;;;;;;15.97;60.12;101562.25;5186906;28;20025;-86
2023/06/01 04:04:04;;;;;;;0.73;0.73;;;;;;;16.41;58.02;101566.78;5185801;28;20018;-86
2023/06/01 04:07:01;;;;;;;1.55;1.45;;;;;;;16.33;58.05;101568.88;5185002;28;20048;-86
2023/06/01 04:09:51;;;;;;;1.23;1.13;;;;;;;16.51;56.88;101567.28;5201856;28;20025;-87
2023/06/01 04:12:44;;;;;;;0.88;0.88;;;;;;;16.54;56.23;101567.19;5180744;28;20548;-87
2023/06/01 04:15:35;;;;;;;6.32;1.77;;;;;;;16.12;58.64;101573.19;5185590;28;20043;-86
2023/06/01 04:18:25;;;;;;;0.77;0.68;;;;;;;16.39;57.46;101571.28;5177566;28;20029;-87
2023/06/01 04:21:17;;;;;;;1.92;1.83;;;;;;;16.29;57.29;101568.13;5184833;28;20039;-88
2023/06/01 04:24:09;;;;;;;9.43;1.70;;;;;;;16.39;57.04;101573.91;5196124;28;20477;-86
2023/06/01 04:27:00;;;;;;;1.20;1.15;;;;;;;16.34;57.64;101576.75;5183693;28;20069;-86
2023/06/01 04:29:52;;;;;;;2.13;1.85;;;;;;;16.23;56.88;101573.66;5187261;28;20038;-85
2023/06/01 04:32:45;;;;;;;1.35;1.25;;;;;;;16.28;57.48;101584.06;5202159;28;20033;-88
2023/06/01 04:35:39;;;;;;;4.63;1.88;;;;;;;16.24;57.28;101579.78;5184736;28;20056;-89
2023/06/01 04:38:36;;;;;;;;;;;;;;;15.95;58.62;101590.53;5188791;28;20048;-88
2023/06/01 04:41:27;;;;;;;2.58;1.38;;;;;;;15.70;60.29;101594.00;5188309;28;19924;-87
2023/06/01 04:44:18;;;;;;;1.42;1.30;;;;;;;15.68;60.91;101597.63;5173607;28;20037;-87
2023/06/01 04:47:09;;;;;;;2.80;2.53;;;;;;;15.14;64.38;101594.13;5172417;28;20038;-88
2023/06/01 04:50:08;;;;;;;4.80;2.92;;;;;;;15.44;61.57;101594.91;5185325;28;20044;-87
2023/06/01 04:53:01;;;;;;;4.05;2.80;;;;;;;15.39;62.07;101592.41;5172475;28;20048;-87
2023/06/01 04:55:56;;;;;;;5.38;2.90;;;;;;;15.61;60.33;101588.19;5187628;28;20369;-88
2023/06/01 04:58:47;;;;;;;3.97;3.67;;;;;;;15.40;61.20;101598.56;5190444;28;20026;-87
2023/06/01 05:01:39;;;;;;;6.63;3.55;;;;;;;15.42;60.80;101592.28;5190632;28;20566;-87
2023/06/01 05:04:29;;;;;;;7.80;5.10;;;;;;;15.58;59.37;101594.41;5186695;28;20653;-87
2023/06/01 05:07:21;;;;;;;2.78;2.55;;;;;;;15.41;61.82;101592.34;5182127;28;20588;-87
2023/06/01 05:10:17;;;;;;;3.33;3.05;;;;;;;15.50;60.28;101596.47;5172322;28;20021;-87
2023/06/01 05:13:08;;;;;;;5.90;4.53;;;;;;;15.58;59.59;101597.94;5180933;28;20037;-85
2023/06/01 05:15:59;;;;;;;6.38;4.50;;;;;;;15.85;58.97;101599.72;5174311;28;20459;-89
2023/06/01 05:18:51;;;;;;;6.13;4.63;;;;;;;15.62;60.54;101609.28;5174426;28;20097;-87
2023/06/01 05:21:43;;;;;;;4.75;4.20;;;;;;;15.76;59.58;101602.63;5176221;28;20288;-87
2023/06/01 05:24:37;;;;;;;7.32;5.00;;;;;;;15.66;59.92;101600.31;5180029;28;20025;-87
2023/06/01 05:27:28;;;;;;;7.22;5.22;;;;;;;15.74;59.91;101600.91;5189576;28;20580;-87
2023/06/01 05:30:22;;;;;;;7.20;4.43;;;;;;;15.66;60.52;101596.81;5169747;28;20034;-88
2023/06/01 05:33:13;;;;;;;10.55;5.82;;;;;;;15.60;60.28;101600.53;5173335;28;20281;-87
2023/06/01 05:36:04;;;;;;;7.20;5.15;;;;;;;15.59;60.05;101598.78;5172913;28;20025;-86
2023/06/01 05:38:55;;;;;;;5.35;4.75;;;;;;;15.37;61.06;101596.88;5168043;28;20025;-88
2023/06/01 05:41:46;;;;;;;10.65;5.85;;;;;;;15.32;61.48;101600.59;5168800;28;20083;-87
2023/06/01 05:44:37;;;;;;;6.18;4.43;;;;;;;15.08;62.90;101598.69;5185666;28;20021;-86
2023/06/01 05:47:27;;;;;;;5.75;4.88;;;;;;;15.43;60.37;101599.31;5165081;28;20038;-87
2023/06/01 05:50:18;;;;;;;4.65;3.30;;;;;;;15.51;60.38;101603.47;5188674;28;20025;-87
2023/06/01 05:53:09;;;;;;;7.18;5.80;;;;;;;15.39;60.81;101602.13;5165719;28;20037;-88
2023/06/01 05:56:00;;;;;;;7.78;6.72;;;;;;;15.22;62.01;101605.31;5181020;28;20033;-87
2023/06/01 05:58:52;;;;;;;6.25;5.18;;;;;;;15.45;60.64;101606.34;5171727;28;20029;-87
2023/06/01 06:01:47;;;;;;;11.30;5.82;;;;;;;15.41;60.40;101606.44;5185756;28;20056;-88
2023/06/01 06:04:39;;;;;;;16.30;5.63;;;;;;;15.47;60.02;101608.00;5186324;28;20041;-87
2023/06/01 06:07:41;;;;;;;7.30;5.10;;;;;;;15.18;61.43;101606.31;5187178;28;20915;-86
2023/06/01 06:10:33;;;;;;;5.90;5.40;;;;;;;15.39;59.91;101610.94;5186420;28;20041;-87
2023/06/01 06:13:24;;;;;;;10.85;9.23;;;;;;;15.28;60.80;101615.69;5168548;28;20095;-87
2023/06/01 06:16:15;;;;;;;7.45;5.68;;;;;;;15.26;61.05;101613.09;5167711;28;20774;-86
2023/06/01 06:19:06;;;;;;;5.18;4.72;;;;;;;15.07;61.27;101610.19;5175112;28;20128;-87
2023/06/01 06:21:57;;;;;;;5.90;5.38;;;;;;;15.27;60.41;101611.31;5168102;28;20038;-87
2023/06/01 06:24:49;;;;;;;6.10;4.40;;;;;;;15.32;60.79;101612.06;5191249;28;20033;-87
2023/06/01 06:27:40;;;;;;;6.63;6.07;;;;;;;15.21;61.20;101614.16;5178885;28;20050;-87
2023/06/01 06:30:30;;;;;;;3.80;3.50;;;;;;;15.22;60.55;101610.63;5172635;28;20040;-86
2023/06/01 06:33:21;;;;;;;6.75;6.07;;;;;;;15.32;60.03;101617.34;5166380;28;20417;-88
2023/06/01 06:36:12;;;;;;;5.53;4.15;;;;;;;15.49;58.85;101619.41;5198672;28;20045;-87
2023/06/01 06:39:03;;;;;;;9.50;6.15;;;;;;;15.29;59.86;101616.56;5167661;28;20088;-87
2023/06/01 06:41:54;;;;;;;8.77;4.93;;;;;;;15.38;59.44;101617.13;5182281;28;20604;-86
2023/06/01 06:44:45;;;;;;;5.63;5.13;;;;;;;15.31;60.07;101626.19;5196393;28;20099;-87
2023/06/01 06:47:36;;;;;;;5.63;5.07;;;;;;;15.24;60.31;101617.56;5171170;28;20049;-87
2023/06/01 06:50:27;;;;;;;6.55;4.55;;;;;;;15.07;61.11;101633.09;5188612;28;20036;-87
2023/06/01 06:53:18;;;;;;;7.22;6.32;;;;;;;15.25;60.23;101632.53;5191498;28;20038;-87
2023/06/01 06:56:09;;;;;;;10.75;6.65;;;;;;;15.21;59.68;101630.03;5173740;28;20032;-86
2023/06/01 06:58:59;;;;;;;29.60;5.53;;;;;;;15.13;59.66;101626.75;5172877;28;20025;-87
2023/06/01 07:01:50;;;;;;;10.30;6.95;;;;;;;15.16;59.74;101631.97;5171849;28;20494;-87
2023/06/01 07:04:41;;;;;;;6.50;5.50;;;;;;;15.33;59.31;101634.06;5175254;28;20045;-87
2023/06/01 07:07:32;;;;;;;8.00;5.55;;;;;;;15.34;59.88;101631.34;5187192;28;20040;-87
2023/06/01 07:10:23;;;;;;;7.13;4.82;;;;;;;15.06;59.96;101626.97;5177669;28;20393;-86
2023/06/01 07:13:13;;;;;;;6.78;6.15;;;;;;;15.40;58.42;101638.22;5184759;28;20068;-85
2023/06/01 07:16:05;;;;;;;6.88;4.85;;;;;;;15.11;60.11;101630.31;5191179;28;20120;-87
2023/06/01 07:18:56;;;;;;;7.43;6.35;;;;;;;15.08;60.76;101630.41;5172709;28;20071;-86
2023/06/01 07:21:47;;;;;;;6.65;4.13;;;;;;;15.06;60.03;101637.53;5186398;28;20469;-87
2023/06/01 07:24:38;;;;;;;5.35;4.88;;;;;;;15.20;59.32;101631.81;5175167;28;20032;-88
2023/06/01 07:27:28;;;;;;;4.75;4.30;;;;;;;15.22;59.62;101635.25;5207628;28;20049;-88
2023/06/01 07:30:19;;;;;;;4.15;3.85;;;;;;;15.23;58.97;101628.22;5181937;28;20647;-86
2023/06/01 07:33:11;;;;;;;6.07;3.97;;;;;;;15.27;59.04;101629.81;5174613;28;20073;-87
2023/06/01 07:36:03;;;;;;;5.55;5.13;;;;;;;15.11;59.80;101626.81;5189024;28;20034;-87
2023/06/01 07:38:54;;;;;;;4.43;4.03;;;;;;;15.20;59.27;101629.19;5186407;28;20127;-86
2023/06/01 07:41:45;;;;;;;7.47;4.50;;;;;;;15.17;59.29;101631.91;5172229;28;20033;-87
2023/06/01 07:44:36;;;;;;;5.20;4.75;;;;;;;15.13;59.51;101624.13;5184122;28;20056;-88
2023/06/01 07:47:28;;;;;;;6.35;4.80;;;;;;;15.36;58.44;101629.53;5184597;28;20057;-87
2023/06/01 07:50:19;;;;;;;5.78;4.88;;;;;;;15.07;60.17;101623.41;5190350;28;20051;-87
2023/06/01 07:53:11;;;;;;;7.93;5.00;;;;;;;15.40;59.07;101631.16;5173649;28;20616;-87
2023/06/01 07:56:02;;;;;;;5.50;3.97;;;;;;;15.41;58.26;101629.38;5176780;28;20033;-87
2023/06/01 07:58:53;;;;;;;4.15;3.75;;;;;;;15.55;58.15;101628.94;5184716;28;20026;-87
2023/06/01 08:01:44;;;;;;;4.47;3.90;;;;;;;15.32;59.36;101627.91;5170838;28;20124;-86
2023/06/01 08:04:35;;;;;;;3.42;3.13;;;;;;;15.54;58.40;101625.41;5186012;28;20113;-86
2023/06/01 08:07:29;;;;;;;3.42;3.13;;;;;;;15.54;58.25;101632.47;5185752;28;20592;-87
2023/06/01 08:10:20;;;;;;;;;;;;;;;15.68;57.37;101624.09;5172750;28;20034;-88
2023/06/01 08:13:11;;;;;;;3.92;3.55;;;;;;;15.64;58.51;101623.34;5171577;28;20391;-86
2023/06/01 08:16:03;;;;;;;4.95;2.78;;;;;;;15.57;57.98;101624.47;5171347;28;20029;-87
2023/06/01 08:18:56;;;;;;;6.97;4.32;;;;;;;15.59;58.26;101625.25;5188011;28;20029;-87
2023/06/01 08:21:47;;;;;;;6.33;3.53;;;;;;;15.48;59.06;101617.69;5173309;28;20365;-87
2023/06/01 08:24:38;;;;;;;3.55;3.25;;;;;;;15.58;58.64;101619.09;5168328;28;20048;-87
2023/06/01 08:27:28;;;;;;;4.18;2.70;;;;;;;15.32;59.44;101624.38;5176316;28;20040;-86
2023/06/01 08:30:20;;;;;;;3.75;3.42;;;;;;;15.52;59.06;101615.78;5203636;28;20038;-86
2023/06/01 08:33:10;;;;;;;4.43;4.03;;;;;;;15.67;58.02;101615.25;5172981;28;20175;-87
2023/06/01 08:36:02;;;;;;;3.85;3.55;;;;;;;15.62;59.06;101604.00;5194630;28;20033;-87
2023/06/01 08:38:55;;;;;;;2.53;2.33;;;;;;;15.81;58.44;101611.31;5171709;28;20060;-87
2023/06/01 08:41:59;;;;;;;3.03;2.83;;;;;;;15.84;58.08;101616.50;5170305;28;20081;-88
2023/06/01 08:44:53;;;;;;;2.70;2.50;;;;;;;15.91;57.79;101601.28;5186892;28;20033;-87
2023/06/01 08:47:46;;;;;;;3.22;2.90;;;;;;;15.76;58.23;101603.53;5170936;28;20037;-86
2023/06/01 08:50:37;;;;;;;2.88;2.65;;;;;;;15.92;57.28;101606.50;5188398;28;20060;-87
2023/06/01 08:53:29;;;;;;;2.60;2.40;;;;;;;16.08;56.89;101596.25;5184122;28;20033;-87
2023/06/01 08:56:23;;;;;;;3.85;3.53;;;;;;;15.98;56.73;101611.59;5168872;28;20034;-86
2023/06/01 08:59:14;;;;;;;3.63;2.90;;;;;;;15.77;57.67;101601.72;5177867;28;20053;-87
2023/06/01 09:02:06;;;;;;;2.45;2.25;;;;;;;15.98;57.82;101605.44;5184408;28;20037;-88
2023/06/01 09:04:57;;;;;;;3.17;2.83;;;;;;;15.79;57.71;101598.09;5189538;28;20029;-87
2023/06/01 09:07:49;;;;;;;2.80;2.60;;;;;;;15.94;57.61;101601.19;5172423;28;20030;-87
2023/06/01 09:10:40;;;;;;;3.08;2.45;;;;;;;16.05;56.46;101591.94;5177613;28;20037;-87
2023/06/01 09:13:36;;;;;;;2.15;2.00;;;;;;;16.16;56.75;101593.31;5183081;28;20049;-87
2023/06/01 09:16:37;;;;;;;3.00;1.80;;;;;;;16.19;56.63;101593.19;5172055;28;20049;-87
2023/06/01 09:19:46;;;;;;;1.90;1.80;;;;;;;16.23;56.36;101578.94;5172123;28;20034;-86
2023/06/01 09:22:40;;;;;;;4.90;2.35;;;;;;;16.39;55.76;101575.72;5188695;28;20045;-87
2023/06/01 09:25:32;;;;;;;2.42;2.08;;;;;;;16.37;55.99;101578.41;5174796;28;20038;-87
2023/06/01 09:28:23;;;;;;;2.70;2.50;;;;;;;16.40;55.56;101575.66;5188511;28;20101;-88
2023/06/01 09:31:44;;;;;;;2.05;1.83;;;;;;;16.51;55.12;101572.59;5172671;28;20036;-86
2023/06/01 09:34:44;;;;;;;6.70;3.13;;;;;;;16.42;55.53;101565.88;5174440;28;20049;-86
2023/06/01 09:37:37;;;;;;;2.60;1.75;;;;;;;16.47;55.93;101560.41;5186376;28;20037;-87
2023/06/01 09:40:28;;;;;;;0.88;0.88;;;;;;;16.60;55.56;101555.50;5202205;28;20049;-87
2023/06/01 09:43:20;;;;;;;2.47;1.95;;;;;;;16.54;55.34;101548.63;5169061;28;20038;-87
2023/06/01 09:46:13;;;;;;;0.88;0.88;;;;;;;16.60;54.82;101548.38;5186542;28;20614;-87
2023/06/01 09:49:06;;;;;;;2.27;2.07;;;;;;;16.62;54.85;101554.50;5191488;28;20042;-88
2023/06/01 09:52:03;;;;;;;1.80;1.67;;;;;;;16.74;54.96;101546.97;5186700;28;20065;-88
2023/06/01 09:54:58;;;;;;;1.40;1.30;;;;;;;16.76;54.19;101556.59;5192997;28;20272;-87
2023/06/01 09:57:49;;;;;;;2.35;2.05;;;;;;;16.87;53.76;101550.88;5173333;28;20116;-87
2023/06/01 10:00:40;;;;;;;4.95;2.47;;;;;;;16.85;54.62;101555.38;5172479;28;20069;-88
2023/06/01 10:03:31;;;;;;;7.32;4.15;;;;;;;17.02;53.67;101556.50;5176249;28;20196;-87
2023/06/01 10:06:22;;;;;;;7.05;2.70;;;;;;;16.90;54.23;101555.19;5168562;28;20476;-88
2023/06/01 10:09:17;;;;;;;1.60;1.48;;;;;;;17.06;54.04;101553.66;5170903;28;20026;-86
2023/06/01 10:12:09;;;;;;;1.52;1.42;;;;;;;17.19;54.17;101548.72;5175543;28;20091;-88
2023/06/01 10:15:00;;;;;;;1.00;0.98;;;;;;;17.25;53.85;101551.09;5172389;28;20527;-88
2023/06/01 10:17:51;;;;;;;5.97;2.40;;;;;;;17.27;53.18;101551.06;5174036;28;20037;-87
2023/06/01 10:20:42;;;;;;;3.03;1.75;;;;;;;17.30;53.12;101543.84;5189242;28;20026;-87
2023/06/01 10:23:34;;;;;;;1.35;1.25;;;;;;;17.31;52.74;101534.06;5173818;28;20768;-87
2023/06/01 10:26:28;;;;;;;1.95;0.95;;;;;;;17.46;52.88;101532.56;5191085;28;20928;-87
2023/06/01 10:29:27;;;;;;;2.42;1.30;;;;;;;17.50;52.92;101530.63;5182637;28;20059;-88
2023/06/01 10:32:36;;;;;;;1.90;1.77;;;;;;;17.57;52.26;101519.69;5193219;28;20175;-88
2023/06/01 10:35:30;;;;;;;1.85;1.75;;;;;;;17.69;52.31;101525.38;5184888;28;20098;-87
2023/06/01 10:38:22;;;;;;;2.47;1.27;;;;;;;17.70;51.58;101527.09;5187010;28;20041;-88
2023/06/01 10:41:32;;;;;;;3.03;2.05;;;;;;;17.59;51.60;101522.28;5177102;28;20030;-89
2023/06/01 10:44:41;;;;;;;2.40;2.00;;;;;;;17.80;54.31;101532.88;5178955;28;20041;-87
2023/06/01 10:47:35;;;;;;;1.65;1.45;;;;;;;17.88;52.35;101523.66;5186890;28;20035;-87
2023/06/01 10:50:25;;;;;;;0.38;0.38;;;;;;;17.83;51.14;101522.97;5179283;28;20377;-87
2023/06/01 10:53:22;;;;;;;0.75;0.75;;;;;;;17.90;51.79;101527.06;5190187;28;20065;-87
2023/06/01 10:56:24;;;;;;;0.70;0.70;;;;;;;18.07;51.88;101515.72;5175683;28;20113;-87
2023/06/01 10:59:15;;;;;;;0.77;0.77;;;;;;;18.12;51.54;101518.16;5175114;28;20099;-87
2023/06/01 11:02:06;;;;;;;0.70;0.70;;;;;;;18.16;51.39;101509.13;5178961;28;20069;-89
2023/06/01 11:05:36;;;;;;;1.13;1.02;;;;;;;18.27;51.29;101521.88;5179953;28;20068;-87
2023/06/01 11:08:30;;;;;;;1.00;0.98;;;;;;;18.38;51.24;101510.78;5172536;28;20053;-86
2023/06/01 11:11:21;;;;;;;1.02;1.02;;;;;;;18.39;50.51;101512.47;5174516;28;20205;-87
2023/06/01 11:14:12;;;;;;;1.95;1.17;;;;;;;18.54;52.28;101509.13;5178536;28;20040;-88
2023/06/01 11:17:30;;;;;;;5.13;1.65;;;;;;;18.61;49.16;101509.66;5187440;28;20040;-87
2023/06/01 11:20:29;;;;;;;1.67;1.13;;;;;;;18.71;48.97;101507.44;5197887;28;20071;-87
2023/06/01 11:23:20;;;;;;;3.47;1.30;;;;;;;18.74;48.90;101495.78;5175535;28;20408;-87
2023/06/01 11:26:17;;;;;;;0.85;0.85;;;;;;;18.87;49.48;101495.09;5177513;28;20153;-86
2023/06/01 11:29:10;;;;;;;2.28;0.93;;;;;;;18.99;50.08;101482.16;5193004;28;20104;-87
2023/06/01 11:32:05;;;;;;;1.15;1.15;;;;;;;19.06;49.73;101483.56;5184767;28;20129;-87
2023/06/01 11:34:56;;;;;;;0.60;0.60;;;;;;;19.20;49.42;101480.19;5187440;28;20167;-88
2023/06/01 11:37:53;;;;;;;1.40;1.05;;;;;;;19.19;49.41;101483.78;5167794;28;20077;-87
2023/06/01 11:41:04;;;;;;;4.47;1.88;;;;;;;19.33;48.46;101485.75;5176095;28;20033;-87
2023/06/01 11:43:56;;;;;;;1.55;1.13;;;;;;;19.50;48.02;101488.38;5189746;28;20052;-86
2023/06/01 11:46:52;;;;;;;1.23;1.17;;;;;;;19.50;48.23;101482.22;5189477;28;20054;-87
2023/06/01 11:49:47;;;;;;;1.58;1.45;;;;;;;19.49;48.67;101481.34;5191750;28;20713;-87
2023/06/01 11:52:38;;;;;;;0.90;0.85;;;;;;;19.70;48.09;101473.16;5175695;28;20095;-86
2023/06/01 11:55:32;;;;;;;7.43;1.75;;;;;;;19.82;47.21;101472.50;5177056;28;20079;-86
2023/06/01 11:58:29;;;;;;;0.75;0.75;;;;;;;19.85;47.64;101475.97;5185918;28;20064;-85
2023/06/01 12:01:19;;;;;;;1.55;1.35;;;;;;;19.92;45.46;101472.03;5174496;28;20097;-87
2023/06/01 12:04:19;;;;;;;1.48;1.38;;;;;;;19.86;45.33;101477.69;5171337;28;20021;-85
2023/06/01 12:07:10;;;;;;;0.52;0.52;;;;;;;20.07;45.28;101479.16;5171811;28;20033;-87
2023/06/01 12:10:01;;;;;;;1.67;1.40;;;;;;;20.04;46.04;101478.47;5174116;28;20516;-88
2023/06/01 12:12:52;;;;;;;1.25;1.15;;;;;;;20.13;46.04;101468.16;5172258;28;20855;-86
2023/06/01 12:15:44;;;;;;;0.50;0.50;;;;;;;20.30;46.08;101469.03;5174410;28;20025;-84
2023/06/01 12:18:35;;;;;;;0.55;0.55;;;;;;;20.38;46.50;101464.13;5175790;28;20426;-86
2023/06/01 12:21:26;;;;;;;1.30;0.90;;;;;;;20.47;44.81;101462.75;5183663;28;20064;-88
2023/06/01 12:24:38;;;;;;;0.93;0.82;;;;;;;20.57;44.80;101457.75;5174064;28;20033;-87
2023/06/01 12:27:32;;;;;;;0.68;0.68;;;;;;;20.47;44.63;101456.53;5175126;28;20397;-87
2023/06/01 12:30:23;;;;;;;1.33;1.23;;;;;;;20.62;46.14;101455.66;5174791;28;20042;-86
2023/06/01 12:33:34;;;;;;;0.68;0.68;;;;;;;20.79;44.22;101452.06;5168131;28;20037;-87
2023/06/01 12:36:34;;;;;;;1.95;1.27;;;;;;;20.73;43.66;101458.59;5189477;28;20041;-89
2023/06/01 12:39:43;;;;;;;1.23;1.23;;;;;;;20.84;44.23;101452.63;5202887;28;20392;-88
2023/06/01 12:42:39;;;;;;;0.68;0.68;;;;;;;20.77;43.24;101453.94;5188372;28;20063;-88
2023/06/01 12:45:40;;;;;;;7.78;1.85;;;;;;;20.95;43.50;101452.00;5166665;28;20048;-87
2023/06/01 12:48:39;;;;;;;1.40;1.30;;;;;;;21.11;44.56;101430.59;5167751;28;20038;-88
2023/06/01 12:51:30;;;;;;;2.28;1.15;;;;;;;21.12;44.07;101436.78;5148384;28;20094;-86
2023/06/01 12:54:21;;;;;;;1.20;1.10;;;;;;;21.17;43.45;101437.38;5181002;28;20039;-88
2023/06/01 12:57:13;;;;;;;1.20;0.73;;;;;;;21.14;42.51;101443.78;5170532;28;20033;-86
2023/06/01 13:00:06;;;;;;;4.85;1.75;;;;;;;21.27;43.65;101441.22;5166304;28;20021;-86
2023/06/01 13:02:57;;;;;;;1.85;1.17;;;;;;;21.38;42.87;101441.41;5184234;28;20040;-86
2023/06/01 13:05:50;;;;;;;3.65;1.42;;;;;;;21.47;42.89;101442.66;5186929;28;20033;-86
2023/06/01 13:08:40;;;;;;;2.20;1.73;;;;;;;21.28;42.85;101437.56;5170283;28;20614;-87
2023/06/01 13:11:31;;;;;;;1.25;1.15;;;;;;;21.54;42.97;101430.66;5197758;28;20048;-85
2023/06/01 13:14:22;;;;;;;0.70;0.70;;;;;;;21.70;43.03;101429.72;5172335;28;20048;-86
2023/06/01 13:17:13;;;;;;;1.42;1.33;;;;;;;21.75;43.10;101438.28;5201296;28;20033;-84
2023/06/01 13:20:06;;;;;;;0.90;0.90;;;;;;;21.66;42.02;101439.72;5180580;28;20025;-86
2023/06/01 13:22:57;;;;;;;;;;;;;;;21.86;41.65;101434.91;5171293;28;20033;-87
2023/06/01 13:25:48;;;;;;;0.63;0.63;;;;;;;21.76;42.08;101426.66;5197256;28;19912;-86
2023/06/01 13:28:41;;;;;;;0.75;0.75;;;;;;;21.88;42.89;101426.84;5164899;28;20108;-85